Tolani Lakes, Arizona
Current Conditions -  °F | °C
As of 11:39 AM on Sunday 21 Dec 2014 (Local Time) from KINW Reporting Station
Few Clouds Few Clouds  
Wind Chill: 31°   Ceiling: Unl
Heat Index: 36°   Visibility: 10mi
Dew Point: 32°   Wind: 6mph
Humidity: 86%   Direction: 60°ENE
Pressure: 30.11"   Gusts: NA
Location:  35.1934°N, 110.361°W
Report Text: KINW 211839Z AUTO 06005KT 10SM FEW004 02/00 A3011 RMK AO2 T00220000
Loading
Personal Weather Stations






























Interactive Weather Map New forecast layout! Learn more

10-Day Weather Forecast

Advertisements
Track Severe Weather on mobile